createdAt,value
2022-11-17T00:00:28.666Z,100135.20
2022-11-17T00:03:30.599Z,100136.86
2022-11-17T00:06:25.513Z,100136.99
2022-11-17T00:09:20.257Z,100139.42
2022-11-17T00:12:33.211Z,100130.86
2022-11-17T00:15:28.017Z,100130.56
2022-11-17T00:18:40.360Z,100131.13
2022-11-17T00:21:35.086Z,100127.66
2022-11-17T00:24:29.775Z,100130.52
2022-11-17T00:27:24.527Z,100128.75
2022-11-17T00:30:33.839Z,100132.35
2022-11-17T00:33:46.403Z,100136.48
2022-11-17T00:36:44.622Z,100130.17
2022-11-17T00:39:39.659Z,100133.20
2022-11-17T00:42:34.445Z,100138.21
2022-11-17T00:45:29.139Z,100139.48
2022-11-17T00:48:23.845Z,100141.81
2022-11-17T00:51:18.633Z,100131.84
2022-11-17T00:54:15.547Z,100138.63
2022-11-17T00:57:10.247Z,100140.13
2022-11-17T01:00:05.379Z,100137.47
2022-11-17T01:03:00.176Z,100138.94
2022-11-17T01:05:55.083Z,100132.77
2022-11-17T01:08:49.870Z,100130.67
2022-11-17T01:11:44.988Z,100129.73
2022-11-17T01:14:40.752Z,100124.60
2022-11-17T01:17:35.499Z,100125.86
2022-11-17T01:20:30.285Z,100126.36
2022-11-17T01:23:25.034Z,100130.30
2022-11-17T01:26:22.153Z,100129.23
2022-11-17T01:29:18.368Z,100124.34
2022-11-17T01:32:13.162Z,100121.11
2022-11-17T01:35:09.566Z,100129.59
2022-11-17T01:38:04.588Z,100125.05
2022-11-17T01:41:02.727Z,100122.40
2022-11-17T01:43:59.665Z,100121.17
2022-11-17T01:46:59.674Z,100117.80
2022-11-17T01:49:57.647Z,100116.08
2022-11-17T01:52:52.469Z,100109.59
2022-11-17T01:55:49.662Z,100111.52
2022-11-17T01:58:50.636Z,100113.72
2022-11-17T02:01:56.756Z,100110.41
2022-11-17T02:04:54.885Z,100115.97
2022-11-17T02:07:50.268Z,100112.26
2022-11-17T02:10:51.322Z,100100.68
2022-11-17T02:13:46.556Z,100095.27
2022-11-17T02:16:41.421Z,100101.24
2022-11-17T02:19:38.614Z,100092.48
2022-11-17T02:22:56.233Z,100098.16
2022-11-17T02:26:24.421Z,100098.33
2022-11-17T02:29:22.590Z,100098.23
2022-11-17T02:32:20.382Z,100091.71
2022-11-17T02:35:21.000Z,100093.17
2022-11-17T02:38:28.408Z,100090.54
2022-11-17T02:41:26.308Z,100089.16
2022-11-17T02:44:24.374Z,100084.77
2022-11-17T02:47:21.560Z,100084.49
2022-11-17T02:50:17.138Z,100082.53
2022-11-17T02:53:11.947Z,100081.17
2022-11-17T02:56:08.299Z,100081.88
2022-11-17T02:59:05.579Z,100079.09
2022-11-17T03:02:33.381Z,100083.95
2022-11-17T03:05:34.785Z,100087.05
2022-11-17T03:08:35.290Z,100092.12
2022-11-17T03:11:35.252Z,100098.41
2022-11-17T03:14:33.923Z,100098.98
2022-11-17T03:17:33.890Z,100095.47
2022-11-17T03:20:32.207Z,100097.84
2022-11-17T03:23:31.485Z,100094.08
2022-11-17T03:26:28.844Z,100097.14
2022-11-17T03:29:25.338Z,100096.81
2022-11-17T03:32:19.977Z,100097.55
2022-11-17T03:35:16.984Z,100100.03
2022-11-17T03:38:13.778Z,100102.52
2022-11-17T03:41:08.866Z,100094.06
2022-11-17T03:44:03.984Z,100095.33
2022-11-17T03:46:58.753Z,100094.11
2022-11-17T03:49:56.032Z,100097.65
2022-11-17T03:52:51.095Z,100093.29
2022-11-17T03:55:51.016Z,100086.46
2022-11-17T03:58:51.691Z,100090.55
2022-11-17T04:01:46.839Z,100095.63
2022-11-17T04:04:59.116Z,100096.56
2022-11-17T04:07:54.116Z,100093.94
2022-11-17T04:11:05.703Z,100096.42
2022-11-17T04:14:18.406Z,100098.35
2022-11-17T04:17:13.275Z,100097.48
2022-11-17T04:20:10.990Z,100099.98
2022-11-17T04:23:08.516Z,100105.66
2022-11-17T04:26:21.090Z,100108.48
2022-11-17T04:29:16.130Z,100103.95
2022-11-17T04:32:11.143Z,100112.02
2022-11-17T04:35:06.016Z,100107.70
2022-11-17T04:38:00.905Z,100110.63
2022-11-17T04:41:15.912Z,100109.98
2022-11-17T04:44:12.076Z,100113.34
2022-11-17T04:47:06.243Z,100104.23
2022-11-17T04:50:01.288Z,100106.06
2022-11-17T04:52:55.973Z,100101.15
2022-11-17T04:55:50.877Z,100104.17
2022-11-17T04:58:46.041Z,100095.42
2022-11-17T05:01:40.992Z,100105.06
2022-11-17T05:05:05.072Z,100106.27
2022-11-17T05:07:59.792Z,100103.52
2022-11-17T05:11:11.909Z,100096.24
2022-11-17T05:14:07.011Z,100102.46
2022-11-17T05:17:11.631Z,100100.17
2022-11-17T05:20:09.232Z,100098.09
2022-11-17T05:23:21.479Z,100093.67
2022-11-17T05:26:16.148Z,100100.40
2022-11-17T05:29:11.553Z,100101.91
2022-11-17T05:32:06.298Z,100098.39
2022-11-17T05:35:01.056Z,100101.26
2022-11-17T05:37:55.598Z,100103.50
2022-11-17T05:40:50.168Z,100099.98
2022-11-17T05:43:44.805Z,100088.30
2022-11-17T05:46:39.450Z,100091.69
2022-11-17T05:49:34.418Z,100087.11
2022-11-17T05:52:29.024Z,100090.10
2022-11-17T05:55:23.959Z,100095.36
2022-11-17T05:58:21.635Z,100099.13
2022-11-17T06:01:16.213Z,100095.08
2022-11-17T06:04:10.968Z,100091.52
2022-11-17T06:07:06.059Z,100097.24
2022-11-17T06:10:00.884Z,100092.55
2022-11-17T06:12:55.573Z,100098.20
2022-11-17T06:15:50.368Z,100099.41
2022-11-17T06:18:47.799Z,100105.09
2022-11-17T06:22:10.090Z,100105.83
2022-11-17T06:24:57.188Z,100102.94
2022-11-17T06:27:52.204Z,100110.94
2022-11-17T06:30:46.886Z,100108.64
2022-11-17T06:33:41.879Z,100107.22
2022-11-17T06:36:36.720Z,100114.29
2022-11-17T06:39:31.820Z,100118.85
2022-11-17T06:42:40.441Z,100125.02
2022-11-17T06:45:37.551Z,100131.80
2022-11-17T06:48:36.023Z,100131.23
2022-11-17T06:51:31.088Z,100127.55
2022-11-17T06:54:25.852Z,100122.04
2022-11-17T06:57:20.491Z,100113.70
2022-11-17T07:00:18.846Z,100120.98
2022-11-17T07:03:14.697Z,100123.83
2022-11-17T07:06:11.525Z,100128.20
2022-11-17T07:09:06.971Z,100129.88
2022-11-17T07:12:01.998Z,100127.46
2022-11-17T07:14:56.823Z,100130.61
2022-11-17T07:17:51.592Z,100127.23
2022-11-17T07:20:46.746Z,100128.09
2022-11-17T07:23:41.948Z,100139.23
2022-11-17T07:26:36.614Z,100137.23
2022-11-17T07:29:31.316Z,100137.81
2022-11-17T07:32:26.489Z,100132.94
2022-11-17T07:35:21.278Z,100119.17
2022-11-17T07:38:16.079Z,100117.87
2022-11-17T07:41:11.737Z,100119.13
2022-11-17T07:44:07.079Z,100126.08
2022-11-17T07:47:01.879Z,100121.67
2022-11-17T07:49:56.507Z,100124.20
2022-11-17T07:52:52.208Z,100121.54
2022-11-17T07:55:46.972Z,100125.98
2022-11-17T07:58:42.006Z,100123.13
2022-11-17T08:01:36.949Z,100114.67
2022-11-17T08:04:31.901Z,100114.38
2022-11-17T08:07:26.738Z,100113.48
2022-11-17T08:10:21.835Z,100121.27
2022-11-17T08:13:16.709Z,100118.52
2022-11-17T08:16:12.533Z,100120.25
2022-11-17T08:19:07.312Z,100117.13
2022-11-17T08:22:02.088Z,100118.93
2022-11-17T08:24:56.749Z,100120.23
2022-11-17T08:27:52.404Z,100123.95
2022-11-17T08:30:47.800Z,100122.89
2022-11-17T08:33:42.730Z,100118.88
2022-11-17T08:36:37.454Z,100121.72
2022-11-17T08:39:32.219Z,100115.15
2022-11-17T08:42:26.960Z,100115.52
2022-11-17T08:45:22.021Z,100123.04
2022-11-17T08:48:16.914Z,100116.58
2022-11-17T08:51:13.034Z,100114.00
2022-11-17T08:54:07.922Z,100123.81
2022-11-17T08:57:03.765Z,100122.54
2022-11-17T08:59:58.408Z,100123.65
2022-11-17T09:02:53.222Z,100116.46
2022-11-17T09:05:48.694Z,100120.41
2022-11-17T09:08:46.663Z,100121.15
2022-11-17T09:11:41.554Z,100125.43
2022-11-17T09:14:36.239Z,100124.70
2022-11-17T09:17:31.744Z,100124.37
2022-11-17T09:20:26.356Z,100124.62
2022-11-17T09:23:21.316Z,100120.40
2022-11-17T09:26:17.230Z,100124.20
2022-11-17T09:29:12.173Z,100126.85
2022-11-17T09:32:07.376Z,100130.40
2022-11-17T09:35:04.362Z,100127.91
2022-11-17T09:38:02.685Z,100126.11
2022-11-17T09:40:58.658Z,100124.30
2022-11-17T09:44:00.599Z,100123.54
2022-11-17T09:47:12.187Z,100119.82
2022-11-17T09:50:14.435Z,100123.65
2022-11-17T09:53:14.206Z,100120.09
2022-11-17T09:56:10.950Z,100119.20
2022-11-17T09:59:06.739Z,100123.16
2022-11-17T10:02:01.574Z,100118.20
2022-11-17T10:04:56.521Z,100113.52
2022-11-17T10:07:53.736Z,100110.98
2022-11-17T10:10:50.460Z,100115.40
2022-11-17T10:13:47.354Z,100110.45
2022-11-17T10:16:43.940Z,100113.07
2022-11-17T10:19:39.867Z,100114.09
2022-11-17T10:22:38.083Z,100109.20
2022-11-17T10:25:43.501Z,100111.15
2022-11-17T10:28:38.146Z,100109.78
2022-11-17T10:31:33.946Z,100107.86
2022-11-17T10:34:41.575Z,100102.64
2022-11-17T10:37:44.887Z,100102.07
2022-11-17T10:40:50.990Z,100105.39
2022-11-17T10:43:46.990Z,100100.44
2022-11-17T10:47:02.398Z,100101.27
2022-11-17T10:50:19.008Z,100097.30
2022-11-17T10:53:28.932Z,100096.70
2022-11-17T10:56:25.127Z,100098.45
2022-11-17T10:59:19.805Z,100098.91
2022-11-17T11:02:32.364Z,100105.27
2022-11-17T11:05:27.391Z,100103.20
2022-11-17T11:08:50.855Z,100097.95
2022-11-17T11:12:05.726Z,100097.02
2022-11-17T11:15:00.853Z,100096.95
2022-11-17T11:17:55.857Z,100091.05
2022-11-17T11:20:55.276Z,100092.84
2022-11-17T11:23:56.052Z,100090.80
2022-11-17T11:26:56.982Z,100088.80
2022-11-17T11:29:56.937Z,100088.85
2022-11-17T11:33:01.054Z,100089.55
2022-11-17T11:36:15.292Z,100091.06
2022-11-17T11:39:18.944Z,100088.38
2022-11-17T11:42:44.019Z,100087.92
2022-11-17T11:45:52.552Z,100084.67
2022-11-17T11:48:47.227Z,100085.64
2022-11-17T11:51:41.991Z,100084.91
2022-11-17T11:54:40.607Z,100082.42
2022-11-17T11:57:40.144Z,100086.23
2022-11-17T12:00:35.261Z,100089.42
2022-11-17T12:03:34.970Z,100092.54
2022-11-17T12:06:43.995Z,100093.77
2022-11-17T12:09:49.304Z,100091.60
2022-11-17T12:12:45.568Z,100087.59
2022-11-17T12:15:41.028Z,100082.16
2022-11-17T12:18:36.280Z,100086.62
2022-11-17T12:21:31.201Z,100091.72
2022-11-17T12:24:26.576Z,100094.01
2022-11-17T12:27:46.771Z,100088.92
2022-11-17T12:31:05.160Z,100083.43
2022-11-17T12:34:29.029Z,100086.90
2022-11-17T12:37:27.698Z,100088.29
2022-11-17T12:40:48.170Z,100090.92
2022-11-17T12:43:42.857Z,100079.91
2022-11-17T12:46:37.627Z,100075.33
2022-11-17T12:49:36.813Z,100082.80
2022-11-17T12:52:36.556Z,100071.59
2022-11-17T12:55:52.080Z,100064.60
2022-11-17T12:58:57.587Z,100070.48
2022-11-17T13:01:58.275Z,100066.62
2022-11-17T13:04:55.656Z,100063.27
2022-11-17T13:07:50.487Z,100063.54
2022-11-17T13:10:45.303Z,100058.27
2022-11-17T13:13:45.500Z,100055.44
2022-11-17T13:16:47.404Z,100052.88
2022-11-17T13:19:43.023Z,100048.52
2022-11-17T13:22:41.789Z,100043.34
2022-11-17T13:25:37.295Z,100046.16
2022-11-17T13:28:33.482Z,100041.67
2022-11-17T13:31:28.672Z,100040.75
2022-11-17T13:34:24.273Z,100040.00
2022-11-17T13:37:23.148Z,100043.21
2022-11-17T13:40:24.409Z,100048.05
2022-11-17T13:43:20.705Z,100046.79
2022-11-17T13:46:15.513Z,100045.57
2022-11-17T13:49:34.023Z,100045.66
2022-11-17T13:52:41.956Z,100047.06
2022-11-17T13:55:38.583Z,100040.80
2022-11-17T13:58:38.605Z,100044.95
2022-11-17T14:01:33.991Z,100047.38
2022-11-17T14:04:29.429Z,100049.92
2022-11-17T14:07:34.901Z,100046.95
2022-11-17T14:10:34.436Z,100041.81
2022-11-17T14:13:33.646Z,100040.39
2022-11-17T14:16:30.716Z,100035.74
2022-11-17T14:19:35.581Z,100033.54
2022-11-17T14:22:31.974Z,100036.48
2022-11-17T14:25:27.250Z,100033.10
2022-11-17T14:28:23.098Z,100031.81
2022-11-17T14:31:17.947Z,100037.23
2022-11-17T14:34:13.027Z,100042.13
2022-11-17T14:37:10.558Z,100045.77
2022-11-17T14:40:08.043Z,100041.57
2022-11-17T14:43:02.867Z,100042.19
2022-11-17T14:45:57.812Z,100049.40
2022-11-17T14:48:53.910Z,100053.16
2022-11-17T14:51:50.657Z,100052.63
2022-11-17T14:54:45.639Z,100053.23
2022-11-17T14:57:40.547Z,100052.67
2022-11-17T15:00:35.266Z,100046.23
2022-11-17T15:03:29.997Z,100043.95
2022-11-17T15:06:25.475Z,100043.79
2022-11-17T15:09:20.736Z,100045.90
2022-11-17T15:12:16.302Z,100045.41
2022-11-17T15:15:12.961Z,100044.60
2022-11-17T15:18:07.866Z,100044.29
2022-11-17T15:21:15.039Z,100042.55
2022-11-17T15:24:10.561Z,100042.02
2022-11-17T15:27:05.365Z,100043.77
2022-11-17T15:30:00.309Z,100043.55
2022-11-17T15:32:55.058Z,100039.02
2022-11-17T15:35:49.836Z,100035.87
2022-11-17T15:38:45.360Z,100032.89
2022-11-17T15:41:40.008Z,100035.82
2022-11-17T15:44:35.675Z,100034.59
2022-11-17T15:47:30.525Z,100028.80
2022-11-17T15:50:25.601Z,100025.77
2022-11-17T15:53:20.355Z,100023.33
2022-11-17T15:56:16.798Z,100025.23
2022-11-17T15:59:13.111Z,100023.09
2022-11-17T16:02:14.193Z,100023.77
2022-11-17T16:05:10.929Z,100027.66
2022-11-17T16:08:06.189Z,100026.77
2022-11-17T16:11:01.141Z,100025.23
2022-11-17T16:13:59.188Z,100023.72
2022-11-17T16:16:54.132Z,100020.66
2022-11-17T16:19:48.925Z,100020.46
2022-11-17T16:22:44.026Z,100015.77
2022-11-17T16:25:42.377Z,100014.02
2022-11-17T16:28:37.558Z,100012.02
2022-11-17T16:31:33.591Z,100011.52
2022-11-17T16:34:28.595Z,100007.02
2022-11-17T16:37:26.065Z,100002.29
2022-11-17T16:40:23.022Z,100001.68
2022-11-17T16:43:18.185Z,100004.49
2022-11-17T16:46:20.112Z,100003.27
2022-11-17T16:49:16.912Z,100005.51
2022-11-17T16:52:11.872Z,100003.92
2022-11-17T16:55:07.802Z,100002.66
2022-11-17T16:58:02.874Z,100006.08
2022-11-17T17:00:57.812Z,100007.34
2022-11-17T17:03:55.437Z,100004.72
2022-11-17T17:06:50.394Z,100004.15
2022-11-17T17:09:45.375Z,99996.02
2022-11-17T17:12:40.040Z,99992.54
2022-11-17T17:15:35.637Z,99987.33
2022-11-17T17:18:30.214Z,99986.55
2022-11-17T17:21:25.160Z,99988.97
2022-11-17T17:24:19.954Z,99990.55
2022-11-17T17:27:15.025Z,99995.79
2022-11-17T17:30:12.589Z,99997.59
2022-11-17T17:33:07.512Z,99990.95
2022-11-17T17:36:05.802Z,99988.30
2022-11-17T17:39:02.927Z,99976.35
2022-11-17T17:41:57.622Z,99974.48
2022-11-17T17:44:52.286Z,99978.05
2022-11-17T17:47:47.126Z,99978.05
2022-11-17T17:50:42.474Z,99977.98
2022-11-17T17:53:37.726Z,99982.01
2022-11-17T17:56:32.912Z,99984.10
2022-11-17T17:59:28.845Z,99985.23
2022-11-17T18:02:23.851Z,99982.40
2022-11-17T18:05:22.529Z,99983.64
2022-11-17T18:08:17.323Z,99980.70
2022-11-17T18:11:13.832Z,99980.48
2022-11-17T18:14:08.607Z,99981.96
2022-11-17T18:17:03.352Z,99976.66
2022-11-17T18:19:58.222Z,99975.65
2022-11-17T18:22:53.171Z,99975.04
2022-11-17T18:25:47.916Z,99970.39
2022-11-17T18:28:42.941Z,99973.13
2022-11-17T18:31:38.877Z,99977.23
2022-11-17T18:34:34.716Z,99978.10
2022-11-17T18:37:29.714Z,99972.60
2022-11-17T18:40:24.771Z,99977.50
2022-11-17T18:43:19.638Z,99981.40
2022-11-17T18:46:16.257Z,99974.58
2022-11-17T18:49:11.314Z,99967.60
2022-11-17T18:52:06.252Z,99961.08
2022-11-17T18:55:01.023Z,99957.69
2022-11-17T18:57:55.880Z,99956.43
2022-11-17T19:00:50.601Z,99955.15
2022-11-17T19:03:46.643Z,99956.77
2022-11-17T19:06:39.764Z,99948.85
2022-11-17T19:09:34.933Z,99951.02
2022-11-17T19:12:29.921Z,99951.42
2022-11-17T19:15:25.131Z,99955.95
2022-11-17T19:18:20.121Z,99960.56
2022-11-17T19:21:16.162Z,99951.62
2022-11-17T19:24:12.411Z,99947.83
2022-11-17T19:27:07.214Z,99954.98
2022-11-17T19:30:02.197Z,99950.73
2022-11-17T19:32:56.978Z,99956.50
2022-11-17T19:35:52.184Z,99957.98
2022-11-17T19:38:48.390Z,99962.88
2022-11-17T19:41:41.432Z,99959.55
2022-11-17T19:44:36.171Z,99957.70
2022-11-17T19:47:30.976Z,99954.70
2022-11-17T19:50:26.373Z,99948.48
2022-11-17T19:53:21.141Z,99950.98
2022-11-17T19:56:15.817Z,99950.02
2022-11-17T19:59:15.648Z,99943.02
2022-11-17T20:02:13.418Z,99946.47
2022-11-17T20:05:11.196Z,99950.38
2022-11-17T20:08:06.457Z,99944.71
2022-11-17T20:11:09.196Z,99941.16
2022-11-17T20:14:03.756Z,99939.15
2022-11-17T20:16:58.171Z,99938.74
2022-11-17T20:19:52.585Z,99945.87
2022-11-17T20:22:46.963Z,99944.32
2022-11-17T20:25:43.481Z,99941.63
2022-11-17T20:28:38.696Z,99943.79
2022-11-17T20:31:34.377Z,99946.07
2022-11-17T20:34:28.759Z,99943.09
2022-11-17T20:37:23.654Z,99937.41
2022-11-17T20:40:18.775Z,99933.69
2022-11-17T20:43:13.399Z,99936.30
2022-11-17T20:46:08.395Z,99933.82
2022-11-17T20:49:02.906Z,99928.25
2022-11-17T20:51:57.391Z,99929.15
2022-11-17T20:54:51.806Z,99927.77
2022-11-17T20:57:46.537Z,99926.98
2022-11-17T21:00:41.498Z,99927.80
2022-11-17T21:03:36.102Z,99930.98
2022-11-17T21:06:30.567Z,99932.45
2022-11-17T21:09:24.999Z,99926.55
2022-11-17T21:12:19.778Z,99923.90
2022-11-17T21:15:15.115Z,99925.81
2022-11-17T21:18:26.887Z,99925.73
2022-11-17T21:21:21.259Z,99924.32
2022-11-17T21:24:15.777Z,99921.88
2022-11-17T21:27:10.472Z,99916.48
2022-11-17T21:30:05.040Z,99907.77
2022-11-17T21:32:59.399Z,99904.33
2022-11-17T21:35:53.790Z,99900.89
2022-11-17T21:38:48.230Z,99900.32
2022-11-17T21:41:42.591Z,99896.87
2022-11-17T21:44:36.939Z,99891.48
2022-11-17T21:47:31.308Z,99889.84
2022-11-17T21:50:25.694Z,99891.15
2022-11-17T21:53:20.232Z,99889.14
2022-11-17T21:56:14.608Z,99892.61
2022-11-17T21:59:12.339Z,99889.02
2022-11-17T22:02:07.043Z,99885.11
2022-11-17T22:05:01.411Z,99880.52
2022-11-17T22:07:56.066Z,99872.69
2022-11-17T22:10:50.425Z,99870.73
2022-11-17T22:13:45.067Z,99872.66
2022-11-17T22:16:40.805Z,99870.95
2022-11-17T22:19:35.214Z,99873.55
2022-11-17T22:22:29.624Z,99870.43
2022-11-17T22:25:44.130Z,99869.44
2022-11-17T22:28:38.820Z,99865.88
2022-11-17T22:31:33.273Z,99857.75
2022-11-17T22:34:27.749Z,99856.52
2022-11-17T22:37:22.144Z,99860.67
2022-11-17T22:40:17.228Z,99854.91
2022-11-17T22:43:14.914Z,99850.05
2022-11-17T22:46:11.765Z,99843.99
2022-11-17T22:49:04.546Z,99845.67
2022-11-17T22:52:04.612Z,99844.23
2022-11-17T22:54:59.031Z,99842.14
2022-11-17T22:57:53.475Z,99837.13
2022-11-17T23:00:48.376Z,99836.14
2022-11-17T23:03:42.848Z,99830.91
2022-11-17T23:06:37.324Z,99831.15
2022-11-17T23:09:32.415Z,99828.61
2022-11-17T23:12:26.829Z,99827.76
2022-11-17T23:15:21.588Z,99823.91
2022-11-17T23:18:16.372Z,99822.92
2022-11-17T23:21:12.282Z,99825.62
2022-11-17T23:24:09.563Z,99820.65
2022-11-17T23:27:04.022Z,99820.52
2022-11-17T23:29:58.835Z,99817.05
2022-11-17T23:32:55.687Z,99818.62
2022-11-17T23:35:50.173Z,99820.75
2022-11-17T23:38:44.572Z,99827.15
2022-11-17T23:41:39.033Z,99822.98
2022-11-17T23:44:33.599Z,99824.81
2022-11-17T23:47:28.168Z,99830.24
2022-11-17T23:50:23.202Z,99840.86
2022-11-17T23:53:17.663Z,99846.77
2022-11-17T23:56:13.331Z,99844.90
2022-11-17T23:59:08.329Z,99845.09
